createdAt,value
2017-09-20T00:00:40.180Z,83.01
2017-09-20T00:01:50.373Z,82.72
2017-09-20T00:03:01.061Z,82.82
2017-09-20T00:04:11.490Z,82.82
2017-09-20T00:05:21.986Z,83.11
2017-09-20T00:06:32.445Z,82.82
2017-09-20T00:07:42.558Z,82.43
2017-09-20T00:08:52.978Z,82.72
2017-09-20T00:10:03.424Z,82.43
2017-09-20T00:11:13.835Z,82.82
2017-09-20T00:12:24.348Z,82.43
2017-09-20T00:13:34.769Z,82.43
2017-09-20T00:14:45.508Z,82.43
2017-09-20T00:15:55.511Z,82.53
2017-09-20T00:17:05.938Z,83.11
2017-09-20T00:18:16.509Z,83.11
2017-09-20T00:19:26.924Z,82.82
2017-09-20T00:20:37.318Z,82.72
2017-09-20T00:21:47.490Z,83.39
2017-09-20T00:22:57.921Z,82.91
2017-09-20T00:24:08.562Z,82.91
2017-09-20T00:25:19.006Z,82.91
2017-09-20T00:26:29.691Z,82.82
2017-09-20T00:27:40.131Z,82.72
2017-09-20T00:28:50.551Z,83.01
2017-09-20T00:30:01.020Z,83.2
2017-09-20T00:31:11.479Z,82.72
2017-09-20T00:32:22.412Z,83.01
2017-09-20T00:33:32.749Z,82.82
2017-09-20T00:34:43.190Z,82.63
2017-09-20T00:35:53.669Z,83.01
2017-09-20T00:37:03.962Z,83.11
2017-09-20T00:38:14.861Z,83.11
2017-09-20T00:39:25.327Z,82.91
2017-09-20T00:40:35.802Z,83.01
2017-09-20T00:41:46.284Z,82.91
2017-09-20T00:42:56.708Z,82.91
2017-09-20T00:44:07.066Z,82.82
2017-09-20T00:45:17.490Z,82.91
2017-09-20T00:46:27.466Z,82.82
2017-09-20T00:47:37.926Z,82.82
2017-09-20T00:48:48.419Z,82.63
2017-09-20T00:49:59.091Z,82.91
2017-09-20T00:51:09.569Z,83.01
2017-09-20T00:52:19.698Z,82.82
2017-09-20T00:53:30.136Z,82.91
2017-09-20T00:54:40.588Z,83.29
2017-09-20T00:55:51.245Z,83.2
2017-09-20T00:57:01.673Z,83.29
2017-09-20T00:58:12.139Z,83.39
2017-09-20T00:59:22.255Z,83.05
2017-09-20T01:00:32.707Z,82.82
2017-09-20T01:01:43.976Z,82.76
2017-09-20T01:02:54.407Z,82.53
2017-09-20T01:04:04.547Z,82.82
2017-09-20T01:05:14.638Z,82.76
2017-09-20T01:06:25.272Z,83.53
2017-09-20T01:07:35.633Z,82.67
2017-09-20T01:08:45.816Z,83.29
2017-09-20T01:09:56.247Z,83.2
2017-09-20T01:11:06.675Z,82.86
2017-09-20T01:12:17.127Z,82.76
2017-09-20T01:13:27.923Z,83.62
2017-09-20T01:14:38.380Z,83.43
2017-09-20T01:15:48.808Z,83.72
2017-09-20T01:16:59.318Z,83.53
2017-09-20T01:18:09.813Z,83.53
2017-09-20T01:19:20.474Z,83.53
2017-09-20T01:20:30.568Z,83.62
2017-09-20T01:21:41.312Z,83.34
2017-09-20T01:22:51.972Z,82.95
2017-09-20T01:24:02.477Z,83.05
2017-09-20T01:25:13.140Z,83.05
2017-09-20T01:26:23.600Z,82.95
2017-09-20T01:27:34.031Z,82.76
2017-09-20T01:29:15.915Z,82.76
2017-09-20T01:30:26.287Z,83.62
2017-09-20T01:31:36.706Z,83.53
2017-09-20T01:32:47.213Z,83.24
2017-09-20T01:33:57.659Z,83.62
2017-09-20T01:35:08.124Z,83.72
2017-09-20T01:36:18.808Z,83.62
2017-09-20T01:37:28.573Z,83.43
2017-09-20T01:38:38.581Z,83.24
2017-09-20T01:39:49.025Z,83.24
2017-09-20T01:40:59.465Z,83.72
2017-09-20T01:42:10.385Z,83.72
2017-09-20T01:43:20.825Z,83.81
2017-09-20T01:44:31.283Z,83.53
2017-09-20T01:45:41.407Z,83.24
2017-09-20T01:46:51.884Z,83.43
2017-09-20T01:48:02.566Z,83.43
2017-09-20T01:49:13.026Z,83.14
2017-09-20T01:50:23.530Z,83.05
2017-09-20T01:51:34.014Z,82.95
2017-09-20T01:52:44.187Z,82.76
2017-09-20T01:53:54.892Z,82.95
2017-09-20T01:55:05.433Z,82.95
2017-09-20T01:56:15.878Z,82.76
2017-09-20T01:57:26.304Z,82.67
2017-09-20T01:58:36.826Z,83.05
2017-09-20T01:59:47.572Z,83.05
2017-09-20T02:00:58.091Z,83.05
2017-09-20T02:02:08.664Z,83.18
2017-09-20T02:03:19.327Z,82.9
2017-09-20T02:04:29.763Z,83.18
2017-09-20T02:05:40.650Z,83.18
2017-09-20T02:06:51.093Z,83
2017-09-20T02:08:01.602Z,83.24
2017-09-20T02:09:12.029Z,83.43
2017-09-20T02:10:22.512Z,83.47
2017-09-20T02:11:33.311Z,82.76
2017-09-20T02:12:43.735Z,83
2017-09-20T02:13:54.428Z,83
2017-09-20T02:15:05.244Z,82.95
2017-09-20T02:16:15.706Z,82.57
2017-09-20T02:17:26.377Z,82.86
2017-09-20T02:18:36.688Z,82.86
2017-09-20T02:19:46.858Z,82.95
2017-09-20T02:20:57.291Z,82.67
2017-09-20T02:22:07.800Z,82.57
2017-09-20T02:23:18.469Z,83.34
2017-09-20T02:24:28.914Z,83.05
2017-09-20T02:25:39.493Z,82.86
2017-09-20T02:26:49.918Z,83.14
2017-09-20T02:28:00.394Z,83.53
2017-09-20T02:29:11.077Z,83.53
2017-09-20T02:30:21.503Z,83.62
2017-09-20T02:31:31.846Z,83.34
2017-09-20T02:32:42.307Z,83.72
2017-09-20T02:33:52.153Z,83.43
2017-09-20T02:35:02.895Z,83.53
2017-09-20T02:36:13.324Z,83.53
2017-09-20T02:37:23.765Z,83.72
2017-09-20T02:38:34.244Z,83.62
2017-09-20T02:39:44.670Z,83.53
2017-09-20T02:40:55.353Z,83.34
2017-09-20T02:42:05.612Z,83.62
2017-09-20T02:43:16.051Z,83.43
2017-09-20T02:44:26.486Z,83.34
2017-09-20T02:45:36.964Z,83.43
2017-09-20T02:46:47.630Z,83.34
2017-09-20T02:47:58.079Z,83.53
2017-09-20T02:49:08.707Z,83.34
2017-09-20T02:50:19.151Z,83.72
2017-09-20T02:51:29.714Z,83.53
2017-09-20T02:52:40.123Z,83.43
2017-09-20T02:53:50.114Z,83.34
2017-09-20T02:55:00.568Z,83.62
2017-09-20T02:56:11.107Z,83.81
2017-09-20T02:57:21.527Z,84.1
2017-09-20T02:58:32.350Z,84.2
2017-09-20T02:59:42.803Z,83.62
2017-09-20T03:00:52.910Z,84.29
2017-09-20T03:02:03.336Z,84.29
2017-09-20T03:03:13.865Z,83.95
2017-09-20T03:04:24.580Z,84.33
2017-09-20T03:05:34.993Z,83.76
2017-09-20T03:06:45.439Z,83.76
2017-09-20T03:07:56.009Z,83.72
2017-09-20T03:09:06.430Z,83.72
2017-09-20T03:10:17.132Z,83.91
2017-09-20T03:11:27.545Z,83.81
2017-09-20T03:12:38.143Z,84.29
2017-09-20T03:13:48.612Z,84.2
2017-09-20T03:14:58.714Z,83.91
2017-09-20T03:16:09.208Z,84.2
2017-09-20T03:17:19.626Z,84.1
2017-09-20T03:18:30.132Z,84.39
2017-09-20T03:19:40.561Z,84.2
2017-09-20T03:20:51.127Z,84.1
2017-09-20T03:22:01.490Z,83.81
2017-09-20T03:23:12.013Z,84.39
2017-09-20T03:24:22.219Z,84.29
2017-09-20T03:25:32.706Z,84
2017-09-20T03:26:42.813Z,84.86
2017-09-20T03:27:53.495Z,84.77
2017-09-20T03:29:03.950Z,84.77
2017-09-20T03:30:14.378Z,84.39
2017-09-20T03:31:24.810Z,84.48
2017-09-20T03:32:35.282Z,84.77
2017-09-20T03:33:45.958Z,84.39
2017-09-20T03:34:56.392Z,84.58
2017-09-20T03:36:06.931Z,84.39
2017-09-20T03:37:17.376Z,84.39
2017-09-20T03:38:28.071Z,84.2
2017-09-20T03:39:38.827Z,84.2
2017-09-20T03:40:49.260Z,84.23
2017-09-20T03:41:59.686Z,84.62
2017-09-20T03:43:10.135Z,84.67
2017-09-20T03:44:20.726Z,84.48
2017-09-20T03:45:31.424Z,84.67
2017-09-20T03:46:41.846Z,84.67
2017-09-20T03:47:52.390Z,84.96
2017-09-20T03:49:02.848Z,84.67
2017-09-20T03:50:13.507Z,84.58
2017-09-20T03:51:24.174Z,84.77
2017-09-20T03:52:34.310Z,84.39
2017-09-20T03:53:44.760Z,84.39
2017-09-20T03:54:55.235Z,84.86
2017-09-20T03:56:05.735Z,84.29
2017-09-20T03:57:16.501Z,84.58
2017-09-20T03:58:26.926Z,84.48
2017-09-20T03:59:37.341Z,84.39
2017-09-20T04:00:47.805Z,84.86
2017-09-20T04:01:58.233Z,85.05
2017-09-20T04:03:08.914Z,84.86
2017-09-20T04:04:19.333Z,84.77
2017-09-20T04:05:29.775Z,84.86
2017-09-20T04:06:40.219Z,84.86
2017-09-20T04:07:50.292Z,84.86
2017-09-20T04:09:00.971Z,85.05
2017-09-20T04:10:11.426Z,84.39
2017-09-20T04:11:21.940Z,84.48
2017-09-20T04:12:32.432Z,84.67
2017-09-20T04:13:42.558Z,84.77
2017-09-20T04:14:53.307Z,84.77
2017-09-20T04:16:03.830Z,84.58
2017-09-20T04:17:14.248Z,84.58
2017-09-20T04:18:24.372Z,84.67
2017-09-20T04:19:34.501Z,84.39
2017-09-20T04:20:45.222Z,84.58
2017-09-20T04:21:55.650Z,84.67
2017-09-20T04:23:06.104Z,84.86
2017-09-20T04:24:16.529Z,84.67
2017-09-20T04:25:26.539Z,84.96
2017-09-20T04:26:36.895Z,84.77
2017-09-20T04:27:47.057Z,85.05
2017-09-20T04:28:57.607Z,84.86
2017-09-20T04:30:07.827Z,85.05
2017-09-20T04:31:18.267Z,84.96
2017-09-20T04:32:28.958Z,84.58
2017-09-20T04:33:39.065Z,84.96
2017-09-20T04:34:49.493Z,84.67
2017-09-20T04:36:00.027Z,84.86
2017-09-20T04:37:10.515Z,84.86
2017-09-20T04:38:21.242Z,84.77
2017-09-20T04:39:31.667Z,84.86
2017-09-20T04:40:42.086Z,84.86
2017-09-20T04:41:52.559Z,84.86
2017-09-20T04:43:02.740Z,85.05
2017-09-20T04:44:13.441Z,84.58
2017-09-20T04:45:23.860Z,85.05
2017-09-20T04:46:34.355Z,85.53
2017-09-20T04:47:44.772Z,85.44
2017-09-20T04:48:55.264Z,85.53
2017-09-20T04:50:05.942Z,85.3
2017-09-20T04:51:16.381Z,84.96
2017-09-20T04:52:26.924Z,85.15
2017-09-20T04:53:37.370Z,85.11
2017-09-20T04:54:47.840Z,85.25
2017-09-20T04:55:58.547Z,84.86
2017-09-20T04:57:09.030Z,85.34
2017-09-20T04:58:19.673Z,85.15
2017-09-20T04:59:29.752Z,85.58
2017-09-20T05:00:40.187Z,85.44
2017-09-20T05:01:51.091Z,85.11
2017-09-20T05:03:01.508Z,85.3
2017-09-20T05:04:11.951Z,85.49
2017-09-20T05:05:22.078Z,85.72
2017-09-20T05:06:32.207Z,85.53
2017-09-20T05:07:43.171Z,85.72
2017-09-20T05:08:53.606Z,85.53
2017-09-20T05:10:04.088Z,85.72
2017-09-20T05:11:14.075Z,85.34
2017-09-20T05:12:24.610Z,85.15
2017-09-20T05:13:35.281Z,85.82
2017-09-20T05:14:45.709Z,85.97
2017-09-20T05:15:56.235Z,86.01
2017-09-20T05:17:06.660Z,86.01
2017-09-20T05:18:17.085Z,85.87
2017-09-20T05:19:27.477Z,85.49
2017-09-20T05:20:37.594Z,85.11
2017-09-20T05:21:48.045Z,85.63
2017-09-20T05:22:58.714Z,85.97
2017-09-20T05:24:09.006Z,86.16
2017-09-20T05:25:19.373Z,86.01
2017-09-20T05:26:29.476Z,85.97
2017-09-20T05:27:39.905Z,86.2
2017-09-20T05:28:50.557Z,86.01
2017-09-20T05:30:00.992Z,85.34
2017-09-20T05:31:11.678Z,85.63
2017-09-20T05:32:22.109Z,85.72
2017-09-20T05:33:32.269Z,85.72
2017-09-20T05:34:42.424Z,85.72
2017-09-20T05:35:52.861Z,85.82
2017-09-20T05:37:03.549Z,85.25
2017-09-20T05:38:14.008Z,85.34
2017-09-20T05:39:24.439Z,85.25
2017-09-20T05:40:34.895Z,84.67
2017-09-20T05:41:45.328Z,85.05
2017-09-20T05:42:56.019Z,85.25
2017-09-20T05:44:06.460Z,85.34
2017-09-20T05:45:17.052Z,85.48
2017-09-20T05:46:27.718Z,85.1
2017-09-20T05:47:38.155Z,84.91
2017-09-20T05:48:48.828Z,84.81
2017-09-20T05:49:59.271Z,84.72
2017-09-20T05:51:09.788Z,84.81
2017-09-20T05:52:20.217Z,84.72
2017-09-20T05:53:30.656Z,84.33
2017-09-20T05:54:41.025Z,84.38
2017-09-20T05:55:51.494Z,84.56
2017-09-20T05:57:01.944Z,84.09
2017-09-20T05:58:12.389Z,84.14
2017-09-20T05:59:22.862Z,84.09
2017-09-20T06:00:33.555Z,83.99
2017-09-20T06:01:44.243Z,84.28
2017-09-20T06:02:54.658Z,83.99
2017-09-20T06:04:05.143Z,83.9
2017-09-20T06:05:14.944Z,84.19
2017-09-20T06:06:25.523Z,84.47
2017-09-20T06:07:35.948Z,84.19
2017-09-20T06:08:46.384Z,84.09
2017-09-20T06:09:56.836Z,83.99
2017-09-20T06:11:07.393Z,84.28
2017-09-20T06:12:18.074Z,84.56
2017-09-20T06:13:28.503Z,84.19
2017-09-20T06:14:38.965Z,84.56
2017-09-20T06:15:49.445Z,84.23
2017-09-20T06:16:59.968Z,84.62
2017-09-20T06:18:10.688Z,84.81
2017-09-20T06:19:21.226Z,85.1
2017-09-20T06:20:31.651Z,84.91
2017-09-20T06:21:42.103Z,84.43
2017-09-20T06:22:52.562Z,84.81
2017-09-20T06:24:03.279Z,84.52
2017-09-20T06:25:13.738Z,84.81
2017-09-20T06:26:24.276Z,84.81
2017-09-20T06:27:34.750Z,84.52
2017-09-20T06:28:44.888Z,84.52
2017-09-20T06:29:55.270Z,84.33
2017-09-20T06:31:05.677Z,84.43
2017-09-20T06:32:16.088Z,85.1
2017-09-20T06:33:27.088Z,85.1
2017-09-20T06:34:37.576Z,84.72
2017-09-20T06:35:47.819Z,84.91
2017-09-20T06:36:57.936Z,84.91
2017-09-20T06:38:08.047Z,85.1
2017-09-20T06:39:18.565Z,84.91
2017-09-20T06:40:29.136Z,84.91
2017-09-20T06:41:39.814Z,84.72
2017-09-20T06:42:49.913Z,84.91
2017-09-20T06:44:00.404Z,84.81
2017-09-20T06:45:10.215Z,84.91
2017-09-20T06:46:20.865Z,85.1
2017-09-20T06:47:31.534Z,84.91
2017-09-20T06:48:41.655Z,85
2017-09-20T06:49:52.117Z,85
2017-09-20T06:51:02.254Z,84.91
2017-09-20T06:52:12.693Z,84.72
2017-09-20T06:53:23.532Z,85.1
2017-09-20T06:54:33.960Z,84.72
2017-09-20T06:55:44.414Z,84.72
2017-09-20T06:56:54.617Z,84.62
2017-09-20T06:58:05.143Z,84.62
2017-09-20T06:59:15.833Z,84.47
2017-09-20T07:00:25.961Z,84.56
2017-09-20T07:01:36.259Z,83.8
2017-09-20T07:02:46.903Z,84.38
2017-09-20T07:03:57.332Z,84.09
2017-09-20T07:05:08.023Z,83.95
2017-09-20T07:06:18.469Z,84.09
2017-09-20T07:07:28.961Z,83.99
2017-09-20T07:08:39.121Z,84.05
2017-09-20T07:09:49.550Z,84.28
2017-09-20T07:11:00.227Z,84.28
2017-09-20T07:12:10.721Z,84.23
2017-09-20T07:13:21.274Z,84.23
2017-09-20T07:14:31.698Z,84.09
2017-09-20T07:15:42.170Z,84.28
2017-09-20T07:16:52.926Z,84.28
2017-09-20T07:18:03.068Z,83.61
2017-09-20T07:19:13.523Z,83.61
2017-09-20T07:20:23.971Z,83.42
2017-09-20T07:21:34.466Z,83.33
2017-09-20T07:22:45.150Z,83.7
2017-09-20T07:23:55.575Z,83.51
2017-09-20T07:25:06.110Z,83.13
2017-09-20T07:26:16.267Z,83.27
2017-09-20T07:27:26.381Z,83.27
2017-09-20T07:28:37.087Z,83.08
2017-09-20T07:29:47.725Z,82.89
2017-09-20T07:30:58.203Z,82.41
2017-09-20T07:32:08.688Z,82.17
2017-09-20T07:33:19.106Z,81.78
2017-09-20T07:34:29.842Z,81.97
2017-09-20T07:35:40.312Z,81.3
2017-09-20T07:36:50.843Z,81.25
2017-09-20T07:38:01.311Z,80.48
2017-09-20T07:39:11.746Z,79.47
2017-09-20T07:40:22.460Z,78.89
2017-09-20T07:41:32.912Z,78.51
2017-09-20T07:42:43.349Z,78.13
2017-09-20T07:43:53.768Z,77.21
2017-09-20T07:45:04.253Z,77.31
2017-09-20T07:46:14.965Z,76.67
2017-09-20T07:47:25.512Z,76.19
2017-09-20T07:48:35.942Z,75.65
2017-09-20T07:49:46.418Z,74.31
2017-09-20T07:50:56.586Z,72.81
2017-09-20T07:52:07.308Z,72.33
2017-09-20T07:53:17.720Z,71.51
2017-09-20T07:54:28.158Z,69.87
2017-09-20T07:55:38.655Z,69.43
2017-09-20T07:56:49.112Z,67.9
2017-09-20T07:57:59.818Z,66.97
2017-09-20T07:59:10.260Z,66.17
2017-09-20T08:00:20.741Z,65.4
2017-09-20T08:01:31.232Z,64.82
2017-09-20T08:02:41.660Z,63.34
2017-09-20T08:03:52.430Z,62.15
2017-09-20T08:05:02.897Z,60.42
2017-09-20T08:06:13.061Z,59.55
2017-09-20T08:07:23.802Z,57.65
2017-09-20T08:08:34.229Z,57.1
2017-09-20T08:09:44.963Z,57.64
2017-09-20T08:10:55.449Z,57.19
2017-09-20T08:12:05.892Z,55.62
2017-09-20T08:13:16.354Z,54.87
2017-09-20T08:14:26.810Z,53.83
2017-09-20T08:15:37.785Z,51.83
2017-09-20T08:16:48.361Z,51.18
2017-09-20T08:17:58.483Z,51.54
2017-09-20T08:19:08.310Z,51.73
2017-09-20T08:20:18.761Z,50.86
2017-09-20T08:21:29.152Z,51.64
2017-09-20T08:22:39.640Z,51.61
2017-09-20T08:23:50.092Z,51.78
2017-09-20T08:25:00.223Z,50.26
2017-09-20T08:26:10.833Z,49.24
2017-09-20T08:27:21.607Z,49.37
2017-09-20T08:28:32.168Z,48.2
2017-09-20T08:29:42.628Z,47.43
2017-09-20T08:30:53.108Z,49.27
2017-09-20T08:32:04.547Z,48.93
2017-09-20T08:33:15.423Z,49.58
2017-09-20T08:34:25.882Z,50.43
2017-09-20T08:35:36.500Z,51.53
2017-09-20T08:36:46.993Z,52.83
2017-09-20T08:37:57.538Z,53.96
2017-09-20T08:39:08.006Z,54.71
2017-09-20T08:40:18.458Z,54.61
2017-09-20T08:41:29.052Z,54.32
2017-09-20T08:42:39.612Z,54.22
2017-09-20T08:43:50.078Z,53.39
2017-09-20T08:45:00.412Z,53.51
2017-09-20T08:46:10.890Z,53.19
2017-09-20T08:47:21.469Z,52.35
2017-09-20T08:48:31.960Z,50.45
2017-09-20T08:49:42.514Z,49.92
2017-09-20T08:50:53.231Z,48.11
2017-09-20T08:52:03.687Z,45.83
2017-09-20T08:53:14.223Z,45.76
2017-09-20T08:54:24.734Z,43.29
2017-09-20T08:55:36.174Z,41.86
2017-09-20T08:56:47.162Z,41.1
2017-09-20T08:57:57.811Z,41.12
2017-09-20T08:59:08.257Z,41.02
2017-09-20T09:00:18.707Z,40.75
2017-09-20T09:01:29.167Z,38.54
2017-09-20T09:02:39.871Z,39.28
2017-09-20T09:03:50.325Z,39.59
2017-09-20T09:05:00.931Z,40.83
2017-09-20T09:06:11.417Z,41.66
2017-09-20T09:07:22.152Z,43.34
2017-09-20T09:08:33.194Z,44.57
2017-09-20T09:09:43.981Z,45.14
2017-09-20T09:10:54.989Z,46.47
2017-09-20T09:12:06.025Z,45.5
2017-09-20T09:13:17.382Z,43.57
2017-09-20T09:14:28.311Z,43.1
2017-09-20T09:15:40.003Z,42.55
2017-09-20T09:16:51.111Z,42.57
2017-09-20T09:18:02.884Z,41.24
2017-09-20T09:19:14.016Z,40.58
2017-09-20T09:20:25.177Z,40.31
2017-09-20T09:21:36.541Z,39.08
2017-09-20T09:22:47.000Z,39.47
2017-09-20T09:23:57.750Z,38.44
2017-09-20T09:25:08.994Z,38.25
2017-09-20T09:26:20.815Z,37.76
2017-09-20T09:27:31.926Z,37.39
2017-09-20T09:28:43.045Z,37.49
2017-09-20T09:29:54.480Z,36.99
2017-09-20T09:31:06.326Z,37.81
2017-09-20T09:32:17.968Z,39.8
2017-09-20T09:33:29.509Z,40.83
2017-09-20T09:34:40.578Z,42.52
2017-09-20T09:35:52.311Z,42.6
2017-09-20T09:37:03.438Z,42.99
2017-09-20T09:38:14.942Z,42.33
2017-09-20T09:39:26.419Z,41.67
2017-09-20T09:40:37.576Z,41.33
2017-09-20T09:41:48.244Z,41.06
2017-09-20T09:42:59.883Z,39.43
2017-09-20T09:44:12.298Z,37.61
2017-09-20T09:45:23.696Z,37.63
2017-09-20T09:46:36.111Z,37.26
2017-09-20T09:47:47.155Z,36.99
2017-09-20T09:48:59.994Z,36.11
2017-09-20T09:50:11.483Z,36.6
2017-09-20T09:51:23.045Z,36.97
2017-09-20T09:52:34.230Z,37.71
2017-09-20T09:53:45.787Z,38.93
2017-09-20T09:54:56.830Z,40.17
2017-09-20T09:56:08.679Z,40.83
2017-09-20T09:57:19.631Z,40.81
2017-09-20T09:58:31.126Z,42.31
2017-09-20T09:59:42.745Z,43.16
2017-09-20T10:00:53.652Z,43.6
2017-09-20T10:02:05.217Z,44.45
2017-09-20T10:03:16.380Z,45.87
2017-09-20T10:04:27.435Z,47.19
2017-09-20T10:05:38.371Z,47.94
2017-09-20T10:06:49.729Z,50.71
2017-09-20T10:08:02.140Z,52.32
2017-09-20T10:09:13.084Z,52.87
2017-09-20T10:10:24.559Z,54.41
2017-09-20T10:11:36.206Z,56.49
2017-09-20T10:12:47.668Z,57.45
2017-09-20T10:13:59.085Z,58.48
2017-09-20T10:15:10.478Z,59.44
2017-09-20T10:16:22.272Z,58.39
2017-09-20T10:17:33.757Z,60.6
2017-09-20T10:18:44.461Z,61.52
2017-09-20T10:19:56.642Z,61.91
2017-09-20T10:21:07.682Z,62.68
2017-09-20T10:22:19.182Z,63.54
2017-09-20T10:23:30.441Z,63.92
2017-09-20T10:24:41.968Z,64.28
2017-09-20T10:25:53.769Z,64.56
2017-09-20T10:27:04.842Z,64.95
2017-09-20T10:28:15.901Z,64.76
2017-09-20T10:29:27.376Z,64.59
2017-09-20T10:30:38.102Z,64.22
2017-09-20T10:31:50.264Z,63.83
2017-09-20T10:33:01.979Z,63.19
2017-09-20T10:34:13.198Z,61.61
2017-09-20T10:35:23.985Z,60.69
2017-09-20T10:36:35.470Z,58.63
2017-09-20T10:37:46.688Z,55.41
2017-09-20T10:38:58.681Z,53.53
2017-09-20T10:40:09.687Z,52.59
2017-09-20T10:41:20.522Z,51.87
2017-09-20T10:42:31.952Z,51.71
2017-09-20T10:43:43.621Z,50.45
2017-09-20T10:44:55.050Z,49.95
2017-09-20T10:46:06.405Z,49.75
2017-09-20T10:47:17.498Z,49.63
2017-09-20T10:48:27.737Z,50.47
2017-09-20T10:49:39.117Z,50.74
2017-09-20T10:50:50.398Z,51.1
2017-09-20T10:52:01.211Z,51.84
2017-09-20T10:53:12.522Z,52.71
2017-09-20T10:54:23.097Z,52.4
2017-09-20T10:55:34.533Z,51.56
2017-09-20T10:56:45.532Z,52.06
2017-09-20T10:57:56.654Z,50.26
2017-09-20T10:59:07.687Z,49.12
2017-09-20T11:00:18.758Z,48.08
2017-09-20T11:01:30.951Z,47.94
2017-09-20T11:02:43.046Z,46.78
2017-09-20T11:03:54.713Z,45.35
2017-09-20T11:05:05.767Z,43.24
2017-09-20T11:06:17.259Z,42.86
2017-09-20T11:07:29.070Z,43.17
2017-09-20T11:08:40.124Z,40.84
2017-09-20T11:09:51.729Z,40.96
2017-09-20T11:11:02.734Z,40.56
2017-09-20T11:12:13.560Z,40.05
2017-09-20T11:13:24.790Z,40.23
2017-09-20T11:14:35.869Z,41
2017-09-20T11:15:48.393Z,40.88
2017-09-20T11:17:00.078Z,41.83
2017-09-20T11:18:11.378Z,41.83
2017-09-20T11:19:23.401Z,41.35
2017-09-20T11:20:34.600Z,39.72
2017-09-20T11:21:46.256Z,40.32
2017-09-20T11:22:57.905Z,39.74
2017-09-20T11:24:08.788Z,38.79
2017-09-20T11:25:20.227Z,37.55
2017-09-20T11:26:31.071Z,36.6
2017-09-20T11:27:42.646Z,36.8
2017-09-20T11:28:54.620Z,37.19
2017-09-20T11:30:05.881Z,36.04
2017-09-20T11:31:17.168Z,35.17
2017-09-20T11:32:27.780Z,35.15
2017-09-20T11:33:39.207Z,35.15
2017-09-20T11:34:51.447Z,36.1
2017-09-20T11:36:02.898Z,36.57
2017-09-20T11:37:14.300Z,38.29
2017-09-20T11:38:25.588Z,39.7
2017-09-20T11:39:36.595Z,40.45
2017-09-20T11:40:47.735Z,41.69
2017-09-20T11:41:58.986Z,42.63
2017-09-20T11:43:10.436Z,43.31
2017-09-20T11:44:21.658Z,43.1
2017-09-20T11:45:32.985Z,43.46
2017-09-20T11:46:44.143Z,44.42
2017-09-20T11:47:55.842Z,46.06
2017-09-20T11:49:07.355Z,45.94
2017-09-20T11:50:18.603Z,45.65
2017-09-20T11:51:29.380Z,44.79
2017-09-20T11:52:41.487Z,44.42
2017-09-20T11:53:53.364Z,44.25
2017-09-20T11:55:06.371Z,41.77
2017-09-20T11:56:20.955Z,42.35
2017-09-20T11:57:32.459Z,42.44
2017-09-20T11:58:43.654Z,41.96
2017-09-20T11:59:54.306Z,42.25
2017-09-20T12:01:05.014Z,42.27
2017-09-20T12:02:15.762Z,42.54
2017-09-20T12:03:27.240Z,42.83
2017-09-20T12:04:37.764Z,42.93
2017-09-20T12:05:49.211Z,43.31
2017-09-20T12:06:59.908Z,43.7
2017-09-20T12:08:10.399Z,44.45
2017-09-20T12:09:20.852Z,44.45
2017-09-20T12:10:31.299Z,44.52
2017-09-20T12:11:41.821Z,45.48
2017-09-20T12:12:52.750Z,45.68
2017-09-20T12:14:02.887Z,45.65
2017-09-20T12:15:13.418Z,46.33
2017-09-20T12:16:23.890Z,45.92
2017-09-20T12:17:34.335Z,46.4
2017-09-20T12:18:44.717Z,46.88
2017-09-20T12:19:55.195Z,47.08
2017-09-20T12:21:05.689Z,46.69
2017-09-20T12:22:16.180Z,46.69
2017-09-20T12:23:26.627Z,46.4
2017-09-20T12:24:37.434Z,45.83
2017-09-20T12:25:47.872Z,46.01
2017-09-20T12:26:58.389Z,46.14
2017-09-20T12:28:08.453Z,45.75
2017-09-20T12:29:18.909Z,45.36
2017-09-20T12:30:29.651Z,45.56
2017-09-20T12:31:41.062Z,45.36
2017-09-20T12:32:51.819Z,45.27
2017-09-20T12:34:02.256Z,45.27
2017-09-20T12:35:12.708Z,45.65
2017-09-20T12:36:23.562Z,46.33
2017-09-20T12:37:33.723Z,46.14
2017-09-20T12:38:44.163Z,46.42
2017-09-20T12:39:54.829Z,47.08
2017-09-20T12:41:05.325Z,47.46
2017-09-20T12:42:16.006Z,48.03
2017-09-20T12:43:26.470Z,48.33
2017-09-20T12:44:36.951Z,48.59
2017-09-20T12:45:47.485Z,49.07
2017-09-20T12:46:57.610Z,49.82
2017-09-20T12:48:08.294Z,50.49
2017-09-20T12:49:18.759Z,50.1
2017-09-20T12:50:29.618Z,49.43
2017-09-20T12:51:40.100Z,49.02
2017-09-20T12:52:50.771Z,49.22
2017-09-20T12:54:01.156Z,49.51
2017-09-20T12:55:11.624Z,50.15
2017-09-20T12:56:22.172Z,49.96
2017-09-20T12:57:32.741Z,49.67
2017-09-20T12:58:43.268Z,48.61
2017-09-20T12:59:53.998Z,48.23
2017-09-20T13:01:04.668Z,48.11
2017-09-20T13:02:15.131Z,48.69
2017-09-20T13:03:25.341Z,48.49
2017-09-20T13:04:36.040Z,47.92
2017-09-20T13:05:46.870Z,46.84
2017-09-20T13:06:57.320Z,47.22
2017-09-20T13:08:07.784Z,45.59
2017-09-20T13:09:17.989Z,45.01
2017-09-20T13:10:28.108Z,45.21
2017-09-20T13:11:38.878Z,45.3
2017-09-20T13:12:49.085Z,44.54
2017-09-20T13:13:59.650Z,44.24
2017-09-20T13:15:10.082Z,43.67
2017-09-20T13:16:20.531Z,44.32
2017-09-20T13:17:31.545Z,44.61
2017-09-20T13:18:42.013Z,44.51
2017-09-20T13:19:52.451Z,44.32
2017-09-20T13:21:02.568Z,44.51
2017-09-20T13:22:13.120Z,44.61
2017-09-20T13:23:23.482Z,44.51
2017-09-20T13:24:33.632Z,45.18
2017-09-20T13:25:44.026Z,45.09
2017-09-20T13:26:54.478Z,45.09
2017-09-20T13:28:04.983Z,45.47
2017-09-20T13:29:15.700Z,45.47
2017-09-20T13:30:26.133Z,46.14
2017-09-20T13:31:36.548Z,46.24
2017-09-20T13:32:47.014Z,46.72
2017-09-20T13:33:57.478Z,47.58
2017-09-20T13:35:08.262Z,48.64
2017-09-20T13:36:18.745Z,49.02
2017-09-20T13:37:29.232Z,49.69
2017-09-20T13:38:39.688Z,50.46
2017-09-20T13:39:50.185Z,50.65
2017-09-20T13:41:01.096Z,51.51
2017-09-20T13:42:11.538Z,51.51
2017-09-20T13:43:21.980Z,51.9
2017-09-20T13:44:32.438Z,52.28
2017-09-20T13:45:42.596Z,52.57
2017-09-20T13:46:53.350Z,52.67
2017-09-20T13:48:03.856Z,53.53
2017-09-20T13:49:14.016Z,53.24
2017-09-20T13:50:24.500Z,54.21
2017-09-20T13:51:35.047Z,54.11
2017-09-20T13:52:45.745Z,54.58
2017-09-20T13:53:56.198Z,54.68
2017-09-20T13:55:06.663Z,55.16
2017-09-20T13:56:17.153Z,54.68
2017-09-20T13:57:27.597Z,55.07
2017-09-20T13:58:38.355Z,55.35
2017-09-20T13:59:48.859Z,55.74
2017-09-20T14:00:59.419Z,55.83
2017-09-20T14:02:10.237Z,55.93
2017-09-20T14:03:20.680Z,56.12
2017-09-20T14:04:31.372Z,56.51
2017-09-20T14:05:41.887Z,56.41
2017-09-20T14:06:52.383Z,56.41
2017-09-20T14:08:02.939Z,56.7
2017-09-20T14:09:14.805Z,56.98
2017-09-20T14:10:25.822Z,56.98
2017-09-20T14:11:36.250Z,56.98
2017-09-20T14:12:46.748Z,56.7
2017-09-20T14:13:57.272Z,57.56
2017-09-20T14:15:07.926Z,57.28
2017-09-20T14:16:18.660Z,57.37
2017-09-20T14:17:29.209Z,57.37
2017-09-20T14:18:40.802Z,57.08
2017-09-20T14:19:51.322Z,57.28
2017-09-20T14:21:01.812Z,57.37
2017-09-20T14:22:12.541Z,57.28
2017-09-20T14:23:23.197Z,57.75
2017-09-20T14:24:33.707Z,57.65
2017-09-20T14:25:44.323Z,57.37
2017-09-20T14:26:54.811Z,57.37
2017-09-20T14:28:05.793Z,57.37
2017-09-20T14:29:16.241Z,57.28
2017-09-20T14:30:26.670Z,57.65
2017-09-20T14:31:37.218Z,57.85
2017-09-20T14:32:47.206Z,57.75
2017-09-20T14:33:58.008Z,57.65
2017-09-20T14:35:08.507Z,57.28
2017-09-20T14:36:19.071Z,57.56
2017-09-20T14:37:29.534Z,57.75
2017-09-20T14:38:39.790Z,57.85
2017-09-20T14:39:50.586Z,57.56
2017-09-20T14:41:00.625Z,57.46
2017-09-20T14:42:11.121Z,57.85
2017-09-20T14:43:21.338Z,57.75
2017-09-20T14:44:31.846Z,57.95
2017-09-20T14:45:42.704Z,57.65
2017-09-20T14:46:53.148Z,57.85
2017-09-20T14:48:03.728Z,57.65
2017-09-20T14:49:14.216Z,58.04
2017-09-20T14:50:24.886Z,57.75
2017-09-20T14:51:35.697Z,58.23
2017-09-20T14:52:46.155Z,58.14
2017-09-20T14:53:56.864Z,57.95
2017-09-20T14:55:06.989Z,58.04
2017-09-20T14:56:17.432Z,58.62
2017-09-20T14:57:28.236Z,58.42
2017-09-20T14:58:38.400Z,58.14
2017-09-20T14:59:48.885Z,58.91
2017-09-20T15:00:59.333Z,58.33
2017-09-20T15:02:09.794Z,58.23
2017-09-20T15:03:20.543Z,58.42
2017-09-20T15:04:31.137Z,58.23
2017-09-20T15:05:41.896Z,58.52
2017-09-20T15:06:52.345Z,58.91
2017-09-20T15:08:02.865Z,58.71
2017-09-20T15:09:13.618Z,58.52
2017-09-20T15:10:24.120Z,58.42
2017-09-20T15:11:34.638Z,58.71
2017-09-20T15:12:45.112Z,58.71
2017-09-20T15:13:55.784Z,58.62